Causeway — 5BVB3 — position and weather

sailwx.info

Track history (hours):
 
Tides and Currents Weather Stations Pressure Air Temp Water Temp Dewpoint Dewpoint Depression Visibility Wind Speed Wind Dir Waves Ship Positions

Causeway

Last reported at 2017-Oct-18 20:00 UTC. Time now 2017-Oct-18 20:16 UTC.
Position N 51°41' E 003°23'.

Length 91 m; draft 6.8 m.

Type: Dredging. MMSI: 210523000.

Date/timePositionNaut miles runAvg speedWind from/ knotsBaromVisibWave heightAir tempDewpointWater temp
2017-Oct-18 20:00N 51°41' E 003°23'1 2.7
2017-Oct-18 19:28N 51°41' E 003°22'613.0
2017-Oct-18 19:00N 51°47' E 003°17'713.8
2017-Oct-18 18:28N 51°54' E 003°19'613.4
2017-Oct-18 18:00N 51°60' E 003°22'712.4
2017-Oct-18 17:28N 52°03' E 003°32'613.0
2017-Oct-18 17:00N 52°03' E 003°42'612.6
2017-Oct-18 16:31N 52°03' E 003°52'611.2
2017-Oct-18 16:01N 52°03' E 004°01'2 4.2
2017-Oct-18 15:31N 52°01' E 004°02'4 7.3
2017-Oct-18 15:01N 51°58' E 004°05'1 0.5
2017-Oct-18 14:01N 51°57' E 004°05'0 0.1
2017-Oct-18 13:30N 51°57' E 004°05'2 3.1
2017-Oct-18 13:01N 51°56' E 004°03'0 0.0
2017-Oct-18 12:31N 51°56' E 004°03'0 0.0
2017-Oct-18 12:01N 51°56' E 004°03'0 0.0
2017-Oct-18 11:31N 51°56' E 004°03'0 0.0
2017-Oct-18 11:01N 51°56' E 004°03'0 0.0
2017-Oct-18 10:31N 51°56' E 004°03'0 0.0
2017-Oct-18 10:01N 51°56' E 004°03'0 0.0
2017-Oct-18 09:31N 51°56' E 004°03'0 0.0
2017-Oct-18 09:00N 51°56' E 004°03'0 0.0
2017-Oct-18 08:31N 51°56' E 004°03'0 0.0
2017-Oct-18 08:01N 51°56' E 004°03'0 0.0
2017-Oct-18 07:31N 51°56' E 004°03'0 0.0
2017-Oct-18 07:01N 51°56' E 004°03'0 0.0
2017-Oct-18 06:31N 51°56' E 004°03'0 0.0
2017-Oct-18 06:01N 51°56' E 004°03'0 0.2
2017-Oct-18 05:30N 51°56' E 004°03'3 6.7
2017-Oct-18 05:01N 51°57' E 004°09'1 2.5
2017-Oct-18 04:31N 51°58' E 004°07'5 9.1
2017-Oct-18 04:00N 52°01' E 004°01'4 7.2
2017-Oct-18 03:31N 52°04' E 003°59'1 1.4
2017-Oct-18 03:01N 52°05' E 004°00'2 4.5
2017-Oct-18 02:31N 52°03' E 003°59'613.0
2017-Oct-18 02:01N 51°60' E 003°49'713.3
2017-Oct-18 01:30N 51°58' E 003°39'713.3
2017-Oct-18 01:00N 51°56' E 003°28'613.2
2017-Oct-18 00:30N 51°51' E 003°21'612.4
2017-Oct-18 00:01N 51°45' E 003°19'611.6
2017-Oct-17 23:30N 51°41' E 003°26'510.7
2017-Oct-17 23:01N 51°40' E 003°34'510.1
2017-Oct-17 22:30N 51°40' E 003°42'0 0.5
2017-Oct-17 22:01N 51°40' E 003°42'1 1.1
2017-Oct-17 21:30N 51°40' E 003°42'611.0
2017-Oct-17 21:00N 51°40' E 003°33'510.0
2017-Oct-17 20:30N 51°38' E 003°25'2 4.7
2017-Oct-17 20:00N 51°40' E 003°23'0 0.6
2017-Oct-17 19:29N 51°40' E 003°23'2 3.4
2017-Oct-17 18:59N 51°41' E 003°26'511.6
2017-Oct-17 18:30N 51°40' E 003°35'5 9.3
2017-Oct-17 17:59N 51°40' E 003°42'0 0.1
2017-Oct-17 17:30N 51°40' E 003°42'2 3.7
2017-Oct-17 17:00N 51°40' E 003°39'4 8.6
2017-Oct-17 16:30N 51°39' E 003°32'4 8.3
2017-Oct-17 16:00N 51°38' E 003°26'3 5.5
2017-Oct-17 15:30N 51°40' E 003°23'0 0.7
2017-Oct-17 14:59N 51°41' E 003°24'1 1.3
2017-Oct-17 14:30N 51°41' E 003°24'611.8
2017-Oct-17 14:00N 51°40' E 003°34'510.6
2017-Oct-17 13:30N 51°40' E 003°42'0 0.1
2017-Oct-17 13:00N 51°40' E 003°42'4 7.9
2017-Oct-17 12:30N 51°40' E 003°36'611.6
2017-Oct-17 12:00N 51°38' E 003°27'3 6.4
2017-Oct-17 11:30N 51°40' E 003°23'1 1.1
2017-Oct-17 10:59N 51°41' E 003°23'0 0.9
2017-Oct-17 10:30N 51°41' E 003°24'4 7.7
2017-Oct-17 10:00N 51°40' E 003°30'510.2
2017-Oct-17 09:30N 51°40' E 003°38'2 5.0
2017-Oct-17 09:00N 51°40' E 003°42'0 0.1
2017-Oct-17 08:30N 51°40' E 003°42'5 9.9
2017-Oct-17 08:00N 51°40' E 003°34'5 9.3
2017-Oct-17 07:30N 51°38' E 003°27'4 7.5
2017-Oct-17 07:00N 51°40' E 003°22'1 1.9
2017-Oct-17 06:29N 51°40' E 003°23'1 1.5
2017-Oct-17 06:00N 51°41' E 003°24'4 8.4
2017-Oct-17 05:29N 51°40' E 003°31'613.2
2017-Oct-17 05:00N 51°40' E 003°41'1 1.7
2017-Oct-17 04:30N 51°40' E 003°42'1 1.7
2017-Oct-17 04:00N 51°40' E 003°41'4 8.9
2017-Oct-17 03:30N 51°40' E 003°34'5 9.0
2017-Oct-17 03:00N 51°38' E 003°27'3 6.9
2017-Oct-17 02:30N 51°40' E 003°22'1 1.5
2017-Oct-17 02:00N 51°40' E 003°23'1 1.2
2017-Oct-17 01:30N 51°41' E 003°24'3 6.4
2017-Oct-17 01:00N 51°41' E 003°29'611.6
2017-Oct-17 00:30N 51°40' E 003°38'3 5.1
2017-Oct-16 23:59N 51°40' E 003°42'0 0.1
2017-Oct-16 23:30N 51°40' E 003°42'4 9.0
2017-Oct-16 23:00N 51°40' E 003°35'611.7
2017-Oct-16 22:30N 51°38' E 003°26'3 6.0
2017-Oct-16 22:00N 51°40' E 003°23'1 1.1
2017-Oct-16 21:29N 51°41' E 003°23'0 0.8
2017-Oct-16 21:00N 51°41' E 003°24'3 6.5
2017-Oct-16 20:30N 51°40' E 003°29'510.8
2017-Oct-16 20:00N 51°40' E 003°38'3 5.6
2017-Oct-16 19:30N 51°40' E 003°42'0 0.1
2017-Oct-16 18:46N 51°40' E 003°43'1 3.3
2017-Oct-16 18:30N 51°40' E 003°41'5 9.8
2017-Oct-16 18:00N 51°40' E 003°33'5 8.9
2017-Oct-16 17:29N 51°38' E 003°26'3 5.7
2017-Oct-16 17:00N 51°40' E 003°23'1 1.2
2017-Oct-16 16:30N 51°41' E 003°24'1 1.4
2017-Oct-16 16:00N 51°41' E 003°25'612.6
2017-Oct-16 15:30N 51°40' E 003°35'5 9.5
2017-Oct-16 15:00N 51°40' E 003°42'4 3.7
2017-Oct-16 14:00N 51°40' E 003°36'5 9.8
2017-Oct-16 13:30N 51°38' E 003°29'4 8.6
2017-Oct-16 13:00N 51°39' E 003°22'1 2.6
2017-Oct-16 12:29N 51°41' E 003°24'0 0.9
2017-Oct-16 12:00N 51°41' E 003°24'3 6.4
2017-Oct-16 11:30N 51°41' E 003°29'611.6
2017-Oct-16 11:00N 51°40' E 003°38'3 5.1
2017-Oct-16 10:30N 51°40' E 003°42'0 0.1
2017-Oct-16 10:00N 51°40' E 003°42'5 9.9
2017-Oct-16 09:30N 51°40' E 003°34'611.1
2017-Oct-16 09:00N 51°38' E 003°26'3 5.1
2017-Oct-16 08:29N 51°40' E 003°23'0 0.2
2017-Oct-16 08:00N 51°40' E 003°23'0 0.7
2017-Oct-16 07:28N 51°41' E 003°24'4 7.9
2017-Oct-16 07:00N 51°40' E 003°29'611.1
2017-Oct-16 06:29N 51°40' E 003°39'2 4.5
2017-Oct-16 05:57N 51°40' E 003°42'0 0.2
2017-Oct-16 05:30N 51°40' E 003°42'4 8.2
2017-Oct-16 05:00N 51°40' E 003°36'4 8.6
2017-Oct-16 04:30N 51°38' E 003°29'4 9.1
2017-Oct-16 04:00N 51°39' E 003°22'2 4.1
2017-Oct-16 03:31N 51°41' E 003°23'0 0.7
2017-Oct-16 02:58N 51°41' E 003°24'3 5.6
2017-Oct-16 02:30N 51°41' E 003°28'612.8
2017-Oct-16 02:01N 51°40' E 003°38'3 5.4
2017-Oct-16 01:30N 51°40' E 003°42'0 0.4
2017-Oct-16 01:00N 51°40' E 003°42'5 9.4
2017-Oct-16 00:30N 51°40' E 003°34'510.6
2017-Oct-16 00:00N 51°38' E 003°26'3 5.6
2017-Oct-15 23:30N 51°40' E 003°23'0 0.2
2017-Oct-15 23:00N 51°40' E 003°23'1 1.2
2017-Oct-15 22:30N 51°41' E 003°24'510.6
2017-Oct-15 22:00N 51°40' E 003°32'510.9
2017-Oct-15 21:30N 51°40' E 003°41'1 1.5
2017-Oct-15 20:58N 51°40' E 003°42'2 4.5
2017-Oct-15 20:30N 51°40' E 003°39'611.6
2017-Oct-15 20:00N 51°39' E 003°30'510.2
2017-Oct-15 19:30N 51°39' E 003°22'2 3.7
2017-Oct-15 18:59N 51°41' E 003°24'1 1.1
2017-Oct-15 18:30N 51°40' E 003°23'4 6.9
2017-Oct-15 17:59N 51°40' E 003°29'611.8
2017-Oct-15 17:28N 51°40' E 003°39'2 4.8
2017-Oct-15 17:00N 51°40' E 003°42'0 0.2
2017-Oct-15 16:28N 51°40' E 003°42'3 7.4
2017-Oct-15 16:00N 51°40' E 003°37'5 8.7
2017-Oct-15 15:29N 51°39' E 003°30'4 8.5
2017-Oct-15 15:00N 51°39' E 003°23'2 2.2
2017-Oct-15 13:53N 51°41' E 003°24'3 6.6
2017-Oct-15 13:30N 51°41' E 003°28'713.2
2017-Oct-15 13:01N 51°40' E 003°39'2 4.6
2017-Oct-15 12:31N 51°40' E 003°42'0 1.0
2017-Oct-15 12:00N 51°40' E 003°41'5 9.6
2017-Oct-15 11:30N 51°40' E 003°34'510.5
2017-Oct-15 11:01N 51°38' E 003°26'3 5.7
2017-Oct-15 10:30N 51°41' E 003°23'0 0.5
2017-Oct-15 10:00N 51°40' E 003°23'1 1.4
2017-Oct-15 09:30N 51°41' E 003°24'5 9.9
2017-Oct-15 09:00N 51°40' E 003°32'611.1
2017-Oct-15 08:30N 51°40' E 003°41'1 1.9
2017-Oct-15 08:01N 51°40' E 003°42'2 3.4
2017-Oct-15 07:30N 51°40' E 003°40'510.9
2017-Oct-15 07:01N 51°39' E 003°31'5 9.9
2017-Oct-15 06:31N 51°38' E 003°23'2 4.2
2017-Oct-15 06:01N 51°41' E 003°23'0 0.4
2017-Oct-15 05:31N 51°41' E 003°23'2 3.4
2017-Oct-15 04:59N 51°41' E 003°26'611.4
2017-Oct-15 04:27N 51°40' E 003°36'4 8.9
2017-Oct-15 04:00N 51°40' E 003°42'0 0.0
2017-Oct-15 03:30N 51°40' E 003°42'3 6.0
2017-Oct-15 03:01N 51°40' E 003°38'4 8.7
2017-Oct-15 02:30N 51°39' E 003°31'4 8.1
2017-Oct-15 02:00N 51°38' E 003°24'2 4.4
2017-Oct-15 01:30N 51°40' E 003°23'0 0.4
2017-Oct-15 01:01N 51°41' E 003°23'1 1.1
2017-Oct-15 00:31N 51°41' E 003°24'610.3
2017-Oct-14 23:58N 51°40' E 003°33'612.8
2017-Oct-14 23:30N 51°40' E 003°42'0 0.2
2017-Oct-14 23:00N 51°40' E 003°42'1 2.9
2017-Oct-14 22:30N 51°40' E 003°40'510.5
2017-Oct-14 21:59N 51°39' E 003°31'510.4
2017-Oct-14 21:30N 51°39' E 003°23'2 3.7
2017-Oct-14 20:58N 51°41' E 003°23'0 0.9
2017-Oct-14 20:30N 51°41' E 003°24'1 3.0
2017-Oct-14 20:01N 51°41' E 003°26'611.2
2017-Oct-14 19:31N 51°40' E 003°35'5 9.0
2017-Oct-14 19:00N 51°40' E 003°42'0 0.1
2017-Oct-14 18:30N 51°40' E 003°42'3 5.8
2017-Oct-14 18:00N 51°40' E 003°38'510.8
2017-Oct-14 17:30N 51°39' E 003°29'5 9.7
2017-Oct-14 17:00N 51°39' E 003°22'2 3.1
2017-Oct-14 16:30N 51°40' E 003°23'1 1.1
2017-Oct-14 15:59N 51°41' E 003°24'4 7.5
2017-Oct-14 15:31N 51°40' E 003°30'612.3
2017-Oct-14 14:59N 51°40' E 003°40'1 2.8
2017-Oct-14 14:29N 51°40' E 003°42'1 1.1
2017-Oct-14 14:00N 51°40' E 003°41'4 9.0
2017-Oct-14 13:30N 51°40' E 003°34'4 8.7
2017-Oct-14 13:00N 51°38' E 003°28'4 7.3
2017-Oct-14 12:30N 51°40' E 003°22'1 2.4
2017-Oct-14 12:00N 51°41' E 003°24'0 0.9
2017-Oct-14 11:31N 51°41' E 003°24'610.6
2017-Oct-14 10:59N 51°40' E 003°33'611.8
2017-Oct-14 10:30N 51°40' E 003°42'0 0.2
2017-Oct-14 10:00N 51°40' E 003°42'2 4.5
2017-Oct-14 09:30N 51°40' E 003°39'510.7
2017-Oct-14 09:00N 51°39' E 003°30'5 9.7
2017-Oct-14 08:27N 51°39' E 003°22'1 2.8
2017-Oct-14 08:00N 51°40' E 003°23'0 0.9
2017-Oct-14 07:29N 51°41' E 003°24'3 7.1
2017-Oct-14 07:00N 51°40' E 003°29'611.1
2017-Oct-14 06:29N 51°40' E 003°38'3 5.4
2017-Oct-14 06:00N 51°40' E 003°42'0 0.2
2017-Oct-14 05:29N 51°40' E 003°42'510.5
2017-Oct-14 05:01N 51°40' E 003°34'510.2
2017-Oct-14 04:30N 51°38' E 003°26'3 6.6
2017-Oct-14 04:01N 51°40' E 003°23'1 1.5
2017-Oct-14 03:30N 51°41' E 003°24'1 1.1
2017-Oct-14 03:00N 51°40' E 003°23'4 8.8
2017-Oct-14 02:30N 51°40' E 003°30'612.0
2017-Oct-14 02:00N 51°40' E 003°40'2 3.4
2017-Oct-14 01:30N 51°40' E 003°42'0 0.1
2017-Oct-14 01:01N 51°40' E 003°42'4 7.1
2017-Oct-14 00:30N 51°40' E 003°37'4 8.9
2017-Oct-14 00:00N 51°39' E 003°30'5 9.0
2017-Oct-13 23:30N 51°39' E 003°22'2 4.4
2017-Oct-13 23:01N 51°41' E 003°24'0 0.3
2017-Oct-13 22:30N 51°40' E 003°23'2 4.3
2017-Oct-13 21:59N 51°41' E 003°27'611.9
2017-Oct-13 21:30N 51°40' E 003°36'4 7.9
2017-Oct-13 21:00N 51°40' E 003°42'0 0.1
2017-Oct-13 20:30N 51°40' E 003°42'5 9.3
2017-Oct-13 20:00N 51°40' E 003°35'611.2
2017-Oct-13 19:30N 51°38' E 003°26'3 5.6
2017-Oct-13 19:00N 51°40' E 003°23'1 1.1
2017-Oct-13 18:30N 51°41' E 003°24'0 0.8
2017-Oct-13 17:59N 51°41' E 003°24'5 9.7
2017-Oct-13 17:30N 51°40' E 003°32'510.8
2017-Oct-13 17:00N 51°40' E 003°40'1 2.4
2017-Oct-13 16:26N 51°40' E 003°42'1 2.1
2017-Oct-13 16:00N 51°40' E 003°41'510.6
2017-Oct-13 15:30N 51°39' E 003°32'5 9.7
2017-Oct-13 15:01N 51°38' E 003°25'2 4.7
2017-Oct-13 14:30N 51°40' E 003°23'1 1.0
2017-Oct-13 13:59N 51°41' E 003°24'1 2.0
2017-Oct-13 13:30N 51°41' E 003°25'611.6
2017-Oct-13 13:00N 51°40' E 003°34'510.1
2017-Oct-13 12:30N 51°40' E 003°42'0 0.0
2017-Oct-13 12:01N 51°40' E 003°42'2 3.3
2017-Oct-13 11:30N 51°40' E 003°40'5 9.2
2017-Oct-13 11:00N 51°39' E 003°32'5 9.0
2017-Oct-13 10:30N 51°38' E 003°25'3 5.4
2017-Oct-13 10:00N 51°40' E 003°23'0 0.2
2017-Oct-13 09:29N 51°41' E 003°23'1 1.3
2017-Oct-13 08:58N 51°41' E 003°24'5 9.2
2017-Oct-13 08:28N 51°40' E 003°31'611.7
2017-Oct-13 07:59N 51°40' E 003°40'1 2.5
2017-Oct-13 07:26N 51°40' E 003°42'0 0.2
2017-Oct-13 07:00N 51°40' E 003°42'510.1
2017-Oct-13 06:29N 51°40' E 003°34'611.4
2017-Oct-13 05:59N 51°38' E 003°25'3 5.4
2017-Oct-13 05:30N 51°41' E 003°24'1 1.1
2017-Oct-13 05:01N 51°40' E 003°23'1 1.2
2017-Oct-13 04:29N 51°41' E 003°24'4 8.7
2017-Oct-13 04:00N 51°40' E 003°31'611.2
2017-Oct-13 03:27N 51°40' E 003°40'1 2.7
2017-Oct-13 03:00N 51°40' E 003°42'0 0.0
2017-Oct-13 02:30N 51°40' E 003°42'4 8.2
2017-Oct-13 01:59N 51°40' E 003°36'4 8.6
2017-Oct-13 01:30N 51°39' E 003°29'5 9.2
2017-Oct-13 01:00N 51°39' E 003°22'2 3.8
2017-Oct-13 00:30N 51°40' E 003°23'0 0.6
2017-Oct-13 00:00N 51°41' E 003°23'2 3.5
2017-Oct-12 23:28N 51°41' E 003°26'511.6
2017-Oct-12 23:00N 51°40' E 003°35'5 9.5
2017-Oct-12 22:30N 51°40' E 003°42'0 0.0
2017-Oct-12 22:00N 51°40' E 003°42'1 2.8
2017-Oct-12 21:30N 51°40' E 003°40'5 9.2
2017-Oct-12 21:00N 51°40' E 003°33'5 9.7
2017-Oct-12 20:30N 51°38' E 003°25'2 4.6
2017-Oct-12 19:59N 51°40' E 003°23'0 1.0
2017-Oct-12 19:30N 51°41' E 003°24'0 0.7
2017-Oct-12 19:00N 51°41' E 003°24'4 7.1
2017-Oct-12 18:30N 51°40' E 003°30'510.7
2017-Oct-12 17:59N 51°40' E 003°38'2 4.6
2017-Oct-12 17:27N 51°40' E 003°42'0 0.1
2017-Oct-12 16:59N 51°40' E 003°42'4 8.6
2017-Oct-12 16:30N 51°40' E 003°36'611.5
2017-Oct-12 16:01N 51°38' E 003°27'3 6.5
2017-Oct-12 15:30N 51°40' E 003°23'1 1.3
2017-Oct-12 15:00N 51°41' E 003°24'0 0.5
2017-Oct-12 14:30N 51°41' E 003°24'5 7.4
2017-Oct-12 13:53N 51°40' E 003°31'511.9
2017-Oct-12 13:30N 51°40' E 003°38'3 4.4
2017-Oct-12 12:55N 51°40' E 003°42'0 0.1
2017-Oct-12 12:30N 51°40' E 003°42'3 6.7
2017-Oct-12 12:00N 51°40' E 003°37'4 8.5
2017-Oct-12 11:30N 51°39' E 003°30'4 8.1
2017-Oct-12 11:00N 51°38' E 003°24'2 4.5
2017-Oct-12 10:30N 51°40' E 003°23'0 0.2
2017-Oct-12 10:00N 51°40' E 003°23'1 1.6
2017-Oct-12 09:30N 51°41' E 003°24'610.8
2017-Oct-12 08:59N 51°40' E 003°33'612.0
2017-Oct-12 08:30N 51°40' E 003°42'0 0.2
2017-Oct-12 08:00N 51°40' E 003°42'0 0.8
2017-Oct-12 07:30N 51°40' E 003°42'510.0
2017-Oct-12 07:01N 51°40' E 003°34'611.0
2017-Oct-12 06:30N 51°38' E 003°25'3 5.1
2017-Oct-12 06:00N 51°41' E 003°24'0 0.7
2017-Oct-12 05:30N 51°40' E 003°23'1 1.3
2017-Oct-12 05:01N 51°41' E 003°24'3 6.3
2017-Oct-12 04:30N 51°41' E 003°29'5 9.8
2017-Oct-12 03:59N 51°40' E 003°37'3 6.9
2017-Oct-12 03:30N 51°40' E 003°42'0 0.1
2017-Oct-12 02:59N 51°40' E 003°42'2 3.9
2017-Oct-12 02:30N 51°40' E 003°39'510.6
2017-Oct-12 02:00N 51°39' E 003°31'5 9.8
2017-Oct-12 01:31N 51°38' E 003°23'3 5.7
2017-Oct-12 01:01N 51°41' E 003°24'1 1.1
2017-Oct-12 00:30N 51°41' E 003°24'1 2.5
2017-Oct-12 00:00N 51°40' E 003°22'4 7.9
2017-Oct-11 23:30N 51°38' E 003°27'611.6
2017-Oct-11 23:00N 51°40' E 003°36'4 8.0
2017-Oct-11 22:29N 51°40' E 003°42'0 0.1
2017-Oct-11 21:59N 51°40' E 003°42'2 4.1
2017-Oct-11 21:30N 51°40' E 003°39'5 9.1
2017-Oct-11 21:00N 51°39' E 003°32'5 9.1
2017-Oct-11 20:30N 51°38' E 003°25'2 4.4
2017-Oct-11 20:00N 51°40' E 003°23'0 1.0
2017-Oct-11 19:30N 51°41' E 003°24'0 0.8
2017-Oct-11 18:51N 51°41' E 003°24'4 9.5
2017-Oct-11 18:26N 51°40' E 003°30'510.8
2017-Oct-11 18:00N 51°40' E 003°38'3 5.7
2017-Oct-11 17:30N 51°40' E 003°42'0 0.0
2017-Oct-11 16:55N 51°40' E 003°42'12 0.7
2017-Oct-11 00:00N 51°41' E 003°24'0 0.7
2017-Oct-10 23:29N 51°41' E 003°24'1 1.8
2017-Oct-10 23:00N 51°40' E 003°22'3 7.0
2017-Oct-10 22:30N 51°38' E 003°27'612.6
2017-Oct-10 22:00N 51°40' E 003°37'4 7.0
2017-Oct-10 21:30N 51°40' E 003°42'0 0.0
2017-Oct-10 21:00N 51°40' E 003°42'0 0.2
2017-Oct-10 20:30N 51°40' E 003°42'4 8.0
2017-Oct-10 20:00N 51°40' E 003°36'5 9.8
2017-Oct-10 19:30N 51°38' E 003°28'4 9.0
2017-Oct-10 19:00N 51°39' E 003°21'2 3.2
2017-Oct-10 18:31N 51°41' E 003°23'0 1.0
2017-Oct-10 18:00N 51°41' E 003°24'2 3.8
2017-Oct-10 17:30N 51°41' E 003°27'510.7
2017-Oct-10 16:59N 51°40' E 003°36'4 8.6
2017-Oct-10 16:30N 51°40' E 003°42'0 0.1
2017-Oct-10 15:41N 51°40' E 003°42'2 9.1
2017-Oct-10 15:30N 51°40' E 003°40'612.1
2017-Oct-10 15:00N 51°39' E 003°30'5 4.7
2017-Oct-10 14:00N 51°40' E 003°23'1 1.2
2017-Oct-10 13:29N 51°41' E 003°24'2 4.4
2017-Oct-10 13:00N 51°41' E 003°27'510.7
2017-Oct-10 12:30N 51°40' E 003°35'4 8.6
2017-Oct-10 12:00N 51°40' E 003°42'0 0.0
2017-Oct-10 11:30N 51°40' E 003°42'2 4.0
2017-Oct-10 11:00N 51°40' E 003°39'4 9.0
2017-Oct-10 10:30N 51°39' E 003°32'4 8.0
2017-Oct-10 10:00N 51°38' E 003°26'3 5.4
2017-Oct-10 09:30N 51°40' E 003°23'0 1.0
2017-Oct-10 09:00N 51°41' E 003°23'1 1.2
2017-Oct-10 08:30N 51°41' E 003°24'510.3
2017-Oct-10 07:59N 51°40' E 003°32'612.4
2017-Oct-10 07:30N 51°40' E 003°42'0 0.2
2017-Oct-10 07:00N 51°40' E 003°42'1 1.7
2017-Oct-10 06:30N 51°40' E 003°41'5 9.6
2017-Oct-10 06:00N 51°40' E 003°33'510.6
2017-Oct-10 05:30N 51°38' E 003°25'3 5.2
2017-Oct-10 05:00N 51°41' E 003°24'1 1.0
2017-Oct-10 04:30N 51°40' E 003°23'1 1.0
2017-Oct-10 04:00N 51°41' E 003°24'2 3.9
2017-Oct-10 03:30N 51°41' E 003°27'510.4
2017-Oct-10 03:00N 51°40' E 003°35'5 8.9
2017-Oct-10 02:30N 51°40' E 003°42'0 0.1
2017-Oct-10 02:01N 51°40' E 003°42'2 3.2
2017-Oct-10 01:30N 51°40' E 003°40'511.0
2017-Oct-10 01:00N 51°39' E 003°31'5 9.5
2017-Oct-10 00:31N 51°38' E 003°24'3 5.4
2017-Oct-10 00:00N 51°41' E 003°24'1 1.6
2017-Oct-09 23:30N 51°40' E 003°23'1 1.8
2017-Oct-09 23:00N 51°41' E 003°24'5 9.6
2017-Oct-09 22:30N 51°40' E 003°32'612.0
2017-Oct-09 21:57N 51°40' E 003°42'0 0.3
2017-Oct-09 21:30N 51°40' E 003°42'0 0.8
2017-Oct-09 21:00N 51°40' E 003°42'4 8.6
2017-Oct-09 20:30N 51°40' E 003°35'4 8.7
2017-Oct-09 20:00N 51°38' E 003°28'4 8.7
2017-Oct-09 19:30N 51°39' E 003°22'2 3.6
2017-Oct-09 19:00N 51°41' E 003°24'1 1.8
2017-Oct-09 18:29N 51°41' E 003°25'511.4
2017-Oct-09 18:00N 51°40' E 003°33'511.0
2017-Oct-09 17:30N 51°40' E 003°42'0 0.2
2017-Oct-09 17:00N 51°40' E 003°42'0 0.3
2017-Oct-09 16:15N 51°40' E 003°42'0 0.1
2017-Oct-09 15:57N 51°40' E 003°42'3 7.3
2017-Oct-09 15:30N 51°40' E 003°37'612.0
2017-Oct-09 15:00N 51°38' E 003°28'4 7.9
2017-Oct-09 14:30N 51°40' E 003°23'0 0.7
2017-Oct-09 14:00N 51°40' E 003°23'1 1.3
2017-Oct-09 13:30N 51°41' E 003°24'3 6.3
2017-Oct-09 12:58N 51°40' E 003°29'511.2
2017-Oct-09 12:30N 51°40' E 003°38'3 6.0
2017-Oct-09 12:00N 51°40' E 003°42'0 0.0
2017-Oct-09 11:29N 51°40' E 003°42'3 5.7
2017-Oct-09 11:00N 51°40' E 003°38'4 8.4
2017-Oct-09 10:29N 51°39' E 003°31'4 8.9
2017-Oct-09 10:00N 51°38' E 003°24'3 5.5
2017-Oct-09 09:29N 51°41' E 003°24'1 1.6
2017-Oct-09 09:00N 51°40' E 003°23'1 1.7
2017-Oct-09 08:31N 51°41' E 003°24'611.1
2017-Oct-09 08:00N 51°40' E 003°33'611.8
2017-Oct-09 07:30N 51°40' E 003°42'0 0.0
2017-Oct-09 07:00N 51°40' E 003°42'1 2.0
2017-Oct-09 06:30N 51°40' E 003°41'4 9.0
2017-Oct-09 06:00N 51°40' E 003°33'5 9.9
2017-Oct-09 05:30N 51°38' E 003°26'3 5.9
2017-Oct-09 05:00N 51°41' E 003°23'0 0.8
2017-Oct-09 04:29N 51°41' E 003°24'1 1.1
2017-Oct-09 04:00N 51°41' E 003°24'5 9.8
2017-Oct-09 03:30N 51°40' E 003°32'610.8
2017-Oct-09 02:59N 51°40' E 003°41'1 2.1
2017-Oct-09 02:29N 51°40' E 003°42'0 0.1
2017-Oct-09 01:58N 51°40' E 003°42'4 9.3
2017-Oct-09 01:30N 51°40' E 003°35'511.1
2017-Oct-09 01:00N 51°38' E 003°27'4 7.2
2017-Oct-09 00:30N 51°41' E 003°23'0 0.7
2017-Oct-09 00:00N 51°41' E 003°23'0 0.3
2017-Oct-08 23:30N 51°41' E 003°23'4 7.7
2017-Oct-08 23:00N 51°40' E 003°30'511.2
2017-Oct-08 22:30N 51°40' E 003°38'2 4.8
2017-Oct-08 22:00N 51°40' E 003°42'0 0.1
2017-Oct-08 21:30N 51°40' E 003°42'3 5.4
2017-Oct-08 21:00N 51°40' E 003°38'4 8.7
2017-Oct-08 20:30N 51°39' E 003°31'  
Track history (hours):
 
Tides and Currents Weather Stations Pressure Air Temp Water Temp Dewpoint Dewpoint Depression Visibility Wind Speed Wind Dir Waves Ship Positions

Causeway

Last reported at 2017-Oct-18 20:00 UTC. Time now 2017-Oct-18 20:16 UTC.
Position N 51°41' E 003°23'.

Length 91 m; draft 6.8 m.

Type: Dredging. MMSI: 210523000.

Date/timePositionNaut miles runAvg speedWind from/ knotsBaromVisibWave heightAir tempDewpointWater temp
2017-Oct-18 20:00N 51°41' E 003°23'1 2.7
2017-Oct-18 19:28N 51°41' E 003°22'613.0
2017-Oct-18 19:00N 51°47' E 003°17'713.8
2017-Oct-18 18:28N 51°54' E 003°19'613.4
2017-Oct-18 18:00N 51°60' E 003°22'712.4
2017-Oct-18 17:28N 52°03' E 003°32'613.0
2017-Oct-18 17:00N 52°03' E 003°42'612.6
2017-Oct-18 16:31N 52°03' E 003°52'611.2
2017-Oct-18 16:01N 52°03' E 004°01'2 4.2
2017-Oct-18 15:31N 52°01' E 004°02'4 7.3
2017-Oct-18 15:01N 51°58' E 004°05'1 0.5
2017-Oct-18 14:01N 51°57' E 004°05'0 0.1
2017-Oct-18 13:30N 51°57' E 004°05'2 3.1
2017-Oct-18 13:01N 51°56' E 004°03'0 0.0
2017-Oct-18 12:31N 51°56' E 004°03'0 0.0
2017-Oct-18 12:01N 51°56' E 004°03'0 0.0
2017-Oct-18 11:31N 51°56' E 004°03'0 0.0
2017-Oct-18 11:01N 51°56' E 004°03'0 0.0
2017-Oct-18 10:31N 51°56' E 004°03'0 0.0
2017-Oct-18 10:01N 51°56' E 004°03'0 0.0
2017-Oct-18 09:31N 51°56' E 004°03'0 0.0
2017-Oct-18 09:00N 51°56' E 004°03'0 0.0
2017-Oct-18 08:31N 51°56' E 004°03'0 0.0
2017-Oct-18 08:01N 51°56' E 004°03'0 0.0
2017-Oct-18 07:31N 51°56' E 004°03'0 0.0
2017-Oct-18 07:01N 51°56' E 004°03'0 0.0
2017-Oct-18 06:31N 51°56' E 004°03'0 0.0
2017-Oct-18 06:01N 51°56' E 004°03'0 0.2
2017-Oct-18 05:30N 51°56' E 004°03'3 6.7
2017-Oct-18 05:01N 51°57' E 004°09'1 2.5
2017-Oct-18 04:31N 51°58' E 004°07'5 9.1
2017-Oct-18 04:00N 52°01' E 004°01'4 7.2
2017-Oct-18 03:31N 52°04' E 003°59'1 1.4
2017-Oct-18 03:01N 52°05' E 004°00'2 4.5
2017-Oct-18 02:31N 52°03' E 003°59'613.0
2017-Oct-18 02:01N 51°60' E 003°49'713.3
2017-Oct-18 01:30N 51°58' E 003°39'713.3
2017-Oct-18 01:00N 51°56' E 003°28'613.2
2017-Oct-18 00:30N 51°51' E 003°21'612.4
2017-Oct-18 00:01N 51°45' E 003°19'611.6
2017-Oct-17 23:30N 51°41' E 003°26'510.7
2017-Oct-17 23:01N 51°40' E 003°34'510.1
2017-Oct-17 22:30N 51°40' E 003°42'0 0.5
2017-Oct-17 22:01N 51°40' E 003°42'1 1.1
2017-Oct-17 21:30N 51°40' E 003°42'611.0
2017-Oct-17 21:00N 51°40' E 003°33'510.0
2017-Oct-17 20:30N 51°38' E 003°25'2 4.7
2017-Oct-17 20:00N 51°40' E 003°23'0 0.6
2017-Oct-17 19:29N 51°40' E 003°23'2 3.4
2017-Oct-17 18:59N 51°41' E 003°26'511.6
2017-Oct-17 18:30N 51°40' E 003°35'5 9.3
2017-Oct-17 17:59N 51°40' E 003°42'0 0.1
2017-Oct-17 17:30N 51°40' E 003°42'2 3.7
2017-Oct-17 17:00N 51°40' E 003°39'4 8.6
2017-Oct-17 16:30N 51°39' E 003°32'4 8.3
2017-Oct-17 16:00N 51°38' E 003°26'3 5.5
2017-Oct-17 15:30N 51°40' E 003°23'0 0.7
2017-Oct-17 14:59N 51°41' E 003°24'1 1.3
2017-Oct-17 14:30N 51°41' E 003°24'611.8
2017-Oct-17 14:00N 51°40' E 003°34'510.6
2017-Oct-17 13:30N 51°40' E 003°42'0 0.1
2017-Oct-17 13:00N 51°40' E 003°42'4 7.9
2017-Oct-17 12:30N 51°40' E 003°36'611.6
2017-Oct-17 12:00N 51°38' E 003°27'3 6.4
2017-Oct-17 11:30N 51°40' E 003°23'1 1.1
2017-Oct-17 10:59N 51°41' E 003°23'0 0.9
2017-Oct-17 10:30N 51°41' E 003°24'4 7.7
2017-Oct-17 10:00N 51°40' E 003°30'510.2
2017-Oct-17 09:30N 51°40' E 003°38'2 5.0
2017-Oct-17 09:00N 51°40' E 003°42'0 0.1
2017-Oct-17 08:30N 51°40' E 003°42'5 9.9
2017-Oct-17 08:00N 51°40' E 003°34'5 9.3
2017-Oct-17 07:30N 51°38' E 003°27'4 7.5
2017-Oct-17 07:00N 51°40' E 003°22'1 1.9
2017-Oct-17 06:29N 51°40' E 003°23'1 1.5
2017-Oct-17 06:00N 51°41' E 003°24'4 8.4
2017-Oct-17 05:29N 51°40' E 003°31'613.2
2017-Oct-17 05:00N 51°40' E 003°41'1 1.7
2017-Oct-17 04:30N 51°40' E 003°42'1 1.7
2017-Oct-17 04:00N 51°40' E 003°41'4 8.9
2017-Oct-17 03:30N 51°40' E 003°34'5 9.0
2017-Oct-17 03:00N 51°38' E 003°27'3 6.9
2017-Oct-17 02:30N 51°40' E 003°22'1 1.5
2017-Oct-17 02:00N 51°40' E 003°23'1 1.2
2017-Oct-17 01:30N 51°41' E 003°24'3 6.4
2017-Oct-17 01:00N 51°41' E 003°29'611.6
2017-Oct-17 00:30N 51°40' E 003°38'3 5.1
2017-Oct-16 23:59N 51°40' E 003°42'0 0.1
2017-Oct-16 23:30N 51°40' E 003°42'4 9.0
2017-Oct-16 23:00N 51°40' E 003°35'611.7
2017-Oct-16 22:30N 51°38' E 003°26'3 6.0
2017-Oct-16 22:00N 51°40' E 003°23'1 1.1
2017-Oct-16 21:29N 51°41' E 003°23'0 0.8
2017-Oct-16 21:00N 51°41' E 003°24'3 6.5
2017-Oct-16 20:30N 51°40' E 003°29'510.8
2017-Oct-16 20:00N 51°40' E 003°38'3 5.6
2017-Oct-16 19:30N 51°40' E 003°42'0 0.1
2017-Oct-16 18:46N 51°40' E 003°43'1 3.3
2017-Oct-16 18:30N 51°40' E 003°41'5 9.8
2017-Oct-16 18:00N 51°40' E 003°33'5 8.9
2017-Oct-16 17:29N 51°38' E 003°26'3 5.7
2017-Oct-16 17:00N 51°40' E 003°23'1 1.2
2017-Oct-16 16:30N 51°41' E 003°24'1 1.4
2017-Oct-16 16:00N 51°41' E 003°25'612.6
2017-Oct-16 15:30N 51°40' E 003°35'5 9.5
2017-Oct-16 15:00N 51°40' E 003°42'4 3.7
2017-Oct-16 14:00N 51°40' E 003°36'5 9.8
2017-Oct-16 13:30N 51°38' E 003°29'4 8.6
2017-Oct-16 13:00N 51°39' E 003°22'1 2.6
2017-Oct-16 12:29N 51°41' E 003°24'0 0.9
2017-Oct-16 12:00N 51°41' E 003°24'3 6.4
2017-Oct-16 11:30N 51°41' E 003°29'611.6
2017-Oct-16 11:00N 51°40' E 003°38'3 5.1
2017-Oct-16 10:30N 51°40' E 003°42'0 0.1
2017-Oct-16 10:00N 51°40' E 003°42'5 9.9
2017-Oct-16 09:30N 51°40' E 003°34'611.1
2017-Oct-16 09:00N 51°38' E 003°26'3 5.1
2017-Oct-16 08:29N 51°40' E 003°23'0 0.2
2017-Oct-16 08:00N 51°40' E 003°23'0 0.7
2017-Oct-16 07:28N 51°41' E 003°24'4 7.9
2017-Oct-16 07:00N 51°40' E 003°29'611.1
2017-Oct-16 06:29N 51°40' E 003°39'2 4.5
2017-Oct-16 05:57N 51°40' E 003°42'0 0.2
2017-Oct-16 05:30N 51°40' E 003°42'4 8.2
2017-Oct-16 05:00N 51°40' E 003°36'4 8.6
2017-Oct-16 04:30N 51°38' E 003°29'4 9.1
2017-Oct-16 04:00N 51°39' E 003°22'2 4.1
2017-Oct-16 03:31N 51°41' E 003°23'0 0.7
2017-Oct-16 02:58N 51°41' E 003°24'3 5.6
2017-Oct-16 02:30N 51°41' E 003°28'612.8
2017-Oct-16 02:01N 51°40' E 003°38'3 5.4
2017-Oct-16 01:30N 51°40' E 003°42'0 0.4
2017-Oct-16 01:00N 51°40' E 003°42'5 9.4
2017-Oct-16 00:30N 51°40' E 003°34'510.6
2017-Oct-16 00:00N 51°38' E 003°26'3 5.6
2017-Oct-15 23:30N 51°40' E 003°23'0 0.2
2017-Oct-15 23:00N 51°40' E 003°23'1 1.2
2017-Oct-15 22:30N 51°41' E 003°24'510.6
2017-Oct-15 22:00N 51°40' E 003°32'510.9
2017-Oct-15 21:30N 51°40' E 003°41'1 1.5
2017-Oct-15 20:58N 51°40' E 003°42'2 4.5
2017-Oct-15 20:30N 51°40' E 003°39'611.6
2017-Oct-15 20:00N 51°39' E 003°30'510.2
2017-Oct-15 19:30N 51°39' E 003°22'2 3.7
2017-Oct-15 18:59N 51°41' E 003°24'1 1.1
2017-Oct-15 18:30N 51°40' E 003°23'4 6.9
2017-Oct-15 17:59N 51°40' E 003°29'611.8
2017-Oct-15 17:28N 51°40' E 003°39'2 4.8
2017-Oct-15 17:00N 51°40' E 003°42'0 0.2
2017-Oct-15 16:28N 51°40' E 003°42'3 7.4
2017-Oct-15 16:00N 51°40' E 003°37'5 8.7
2017-Oct-15 15:29N 51°39' E 003°30'4 8.5
2017-Oct-15 15:00N 51°39' E 003°23'2 2.2
2017-Oct-15 13:53N 51°41' E 003°24'3 6.6
2017-Oct-15 13:30N 51°41' E 003°28'713.2
2017-Oct-15 13:01N 51°40' E 003°39'2 4.6
2017-Oct-15 12:31N 51°40' E 003°42'0 1.0
2017-Oct-15 12:00N 51°40' E 003°41'5 9.6
2017-Oct-15 11:30N 51°40' E 003°34'510.5
2017-Oct-15 11:01N 51°38' E 003°26'3 5.7
2017-Oct-15 10:30N 51°41' E 003°23'0 0.5
2017-Oct-15 10:00N 51°40' E 003°23'1 1.4
2017-Oct-15 09:30N 51°41' E 003°24'5 9.9
2017-Oct-15 09:00N 51°40' E 003°32'611.1
2017-Oct-15 08:30N 51°40' E 003°41'1 1.9
2017-Oct-15 08:01N 51°40' E 003°42'2 3.4
2017-Oct-15 07:30N 51°40' E 003°40'510.9
2017-Oct-15 07:01N 51°39' E 003°31'5 9.9
2017-Oct-15 06:31N 51°38' E 003°23'2 4.2
2017-Oct-15 06:01N 51°41' E 003°23'0 0.4
2017-Oct-15 05:31N 51°41' E 003°23'2 3.4
2017-Oct-15 04:59N 51°41' E 003°26'611.4
2017-Oct-15 04:27N 51°40' E 003°36'4 8.9
2017-Oct-15 04:00N 51°40' E 003°42'0 0.0
2017-Oct-15 03:30N 51°40' E 003°42'3 6.0
2017-Oct-15 03:01N 51°40' E 003°38'4 8.7
2017-Oct-15 02:30N 51°39' E 003°31'4 8.1
2017-Oct-15 02:00N 51°38' E 003°24'2 4.4
2017-Oct-15 01:30N 51°40' E 003°23'0 0.4
2017-Oct-15 01:01N 51°41' E 003°23'1 1.1
2017-Oct-15 00:31N 51°41' E 003°24'610.3
2017-Oct-14 23:58N 51°40' E 003°33'612.8
2017-Oct-14 23:30N 51°40' E 003°42'0 0.2
2017-Oct-14 23:00N 51°40' E 003°42'1 2.9
2017-Oct-14 22:30N 51°40' E 003°40'510.5
2017-Oct-14 21:59N 51°39' E 003°31'510.4
2017-Oct-14 21:30N 51°39' E 003°23'2 3.7
2017-Oct-14 20:58N 51°41' E 003°23'0 0.9
2017-Oct-14 20:30N 51°41' E 003°24'1 3.0
2017-Oct-14 20:01N 51°41' E 003°26'611.2
2017-Oct-14 19:31N 51°40' E 003°35'5 9.0
2017-Oct-14 19:00N 51°40' E 003°42'0 0.1
2017-Oct-14 18:30N 51°40' E 003°42'3 5.8
2017-Oct-14 18:00N 51°40' E 003°38'510.8
2017-Oct-14 17:30N 51°39' E 003°29'5 9.7
2017-Oct-14 17:00N 51°39' E 003°22'2 3.1
2017-Oct-14 16:30N 51°40' E 003°23'1 1.1
2017-Oct-14 15:59N 51°41' E 003°24'4 7.5
2017-Oct-14 15:31N 51°40' E 003°30'612.3
2017-Oct-14 14:59N 51°40' E 003°40'1 2.8
2017-Oct-14 14:29N 51°40' E 003°42'1 1.1
2017-Oct-14 14:00N 51°40' E 003°41'4 9.0
2017-Oct-14 13:30N 51°40' E 003°34'4 8.7
2017-Oct-14 13:00N 51°38' E 003°28'4 7.3
2017-Oct-14 12:30N 51°40' E 003°22'1 2.4
2017-Oct-14 12:00N 51°41' E 003°24'0 0.9
2017-Oct-14 11:31N 51°41' E 003°24'610.6
2017-Oct-14 10:59N 51°40' E 003°33'611.8
2017-Oct-14 10:30N 51°40' E 003°42'0 0.2
2017-Oct-14 10:00N 51°40' E 003°42'2 4.5
2017-Oct-14 09:30N 51°40' E 003°39'510.7
2017-Oct-14 09:00N 51°39' E 003°30'5 9.7
2017-Oct-14 08:27N 51°39' E 003°22'1 2.8
2017-Oct-14 08:00N 51°40' E 003°23'0 0.9
2017-Oct-14 07:29N 51°41' E 003°24'3 7.1
2017-Oct-14 07:00N 51°40' E 003°29'611.1
2017-Oct-14 06:29N 51°40' E 003°38'3 5.4
2017-Oct-14 06:00N 51°40' E 003°42'0 0.2
2017-Oct-14 05:29N 51°40' E 003°42'510.5
2017-Oct-14 05:01N 51°40' E 003°34'510.2
2017-Oct-14 04:30N 51°38' E 003°26'3 6.6
2017-Oct-14 04:01N 51°40' E 003°23'1 1.5
2017-Oct-14 03:30N 51°41' E 003°24'1 1.1
2017-Oct-14 03:00N 51°40' E 003°23'4 8.8
2017-Oct-14 02:30N 51°40' E 003°30'612.0
2017-Oct-14 02:00N 51°40' E 003°40'2 3.4
2017-Oct-14 01:30N 51°40' E 003°42'0 0.1
2017-Oct-14 01:01N 51°40' E 003°42'4 7.1
2017-Oct-14 00:30N 51°40' E 003°37'4 8.9
2017-Oct-14 00:00N 51°39' E 003°30'5 9.0
2017-Oct-13 23:30N 51°39' E 003°22'2 4.4
2017-Oct-13 23:01N 51°41' E 003°24'0 0.3
2017-Oct-13 22:30N 51°40' E 003°23'2 4.3
2017-Oct-13 21:59N 51°41' E 003°27'611.9
2017-Oct-13 21:30N 51°40' E 003°36'4 7.9
2017-Oct-13 21:00N 51°40' E 003°42'0 0.1
2017-Oct-13 20:30N 51°40' E 003°42'5 9.3
2017-Oct-13 20:00N 51°40' E 003°35'611.2
2017-Oct-13 19:30N 51°38' E 003°26'3 5.6
2017-Oct-13 19:00N 51°40' E 003°23'1 1.1
2017-Oct-13 18:30N 51°41' E 003°24'0 0.8
2017-Oct-13 17:59N 51°41' E 003°24'5 9.7
2017-Oct-13 17:30N 51°40' E 003°32'510.8
2017-Oct-13 17:00N 51°40' E 003°40'1 2.4
2017-Oct-13 16:26N 51°40' E 003°42'1 2.1
2017-Oct-13 16:00N 51°40' E 003°41'510.6
2017-Oct-13 15:30N 51°39' E 003°32'5 9.7
2017-Oct-13 15:01N 51°38' E 003°25'2 4.7
2017-Oct-13 14:30N 51°40' E 003°23'1 1.0
2017-Oct-13 13:59N 51°41' E 003°24'1 2.0
2017-Oct-13 13:30N 51°41' E 003°25'611.6
2017-Oct-13 13:00N 51°40' E 003°34'510.1
2017-Oct-13 12:30N 51°40' E 003°42'0 0.0
2017-Oct-13 12:01N 51°40' E 003°42'2 3.3
2017-Oct-13 11:30N 51°40' E 003°40'5 9.2
2017-Oct-13 11:00N 51°39' E 003°32'5 9.0
2017-Oct-13 10:30N 51°38' E 003°25'3 5.4
2017-Oct-13 10:00N 51°40' E 003°23'0 0.2
2017-Oct-13 09:29N 51°41' E 003°23'1 1.3
2017-Oct-13 08:58N 51°41' E 003°24'5 9.2
2017-Oct-13 08:28N 51°40' E 003°31'611.7
2017-Oct-13 07:59N 51°40' E 003°40'1 2.5
2017-Oct-13 07:26N 51°40' E 003°42'0 0.2
2017-Oct-13 07:00N 51°40' E 003°42'510.1
2017-Oct-13 06:29N 51°40' E 003°34'611.4
2017-Oct-13 05:59N 51°38' E 003°25'3 5.4
2017-Oct-13 05:30N 51°41' E 003°24'1 1.1
2017-Oct-13 05:01N 51°40' E 003°23'1 1.2
2017-Oct-13 04:29N 51°41' E 003°24'4 8.7
2017-Oct-13 04:00N 51°40' E 003°31'611.2
2017-Oct-13 03:27N 51°40' E 003°40'1 2.7
2017-Oct-13 03:00N 51°40' E 003°42'0 0.0
2017-Oct-13 02:30N 51°40' E 003°42'4 8.2
2017-Oct-13 01:59N 51°40' E 003°36'4 8.6
2017-Oct-13 01:30N 51°39' E 003°29'5 9.2
2017-Oct-13 01:00N 51°39' E 003°22'2 3.8
2017-Oct-13 00:30N 51°40' E 003°23'0 0.6
2017-Oct-13 00:00N 51°41' E 003°23'2 3.5
2017-Oct-12 23:28N 51°41' E 003°26'511.6
2017-Oct-12 23:00N 51°40' E 003°35'5 9.5
2017-Oct-12 22:30N 51°40' E 003°42'0 0.0
2017-Oct-12 22:00N 51°40' E 003°42'1 2.8
2017-Oct-12 21:30N 51°40' E 003°40'5 9.2
2017-Oct-12 21:00N 51°40' E 003°33'5 9.7
2017-Oct-12 20:30N 51°38' E 003°25'2 4.6
2017-Oct-12 19:59N 51°40' E 003°23'0 1.0
2017-Oct-12 19:30N 51°41' E 003°24'0 0.7
2017-Oct-12 19:00N 51°41' E 003°24'4 7.1
2017-Oct-12 18:30N 51°40' E 003°30'510.7
2017-Oct-12 17:59N 51°40' E 003°38'2 4.6
2017-Oct-12 17:27N 51°40' E 003°42'0 0.1
2017-Oct-12 16:59N 51°40' E 003°42'4 8.6
2017-Oct-12 16:30N 51°40' E 003°36'611.5
2017-Oct-12 16:01N 51°38' E 003°27'3 6.5
2017-Oct-12 15:30N 51°40' E 003°23'1 1.3
2017-Oct-12 15:00N 51°41' E 003°24'0 0.5
2017-Oct-12 14:30N 51°41' E 003°24'5 7.4
2017-Oct-12 13:53N 51°40' E 003°31'511.9
2017-Oct-12 13:30N 51°40' E 003°38'3 4.4
2017-Oct-12 12:55N 51°40' E 003°42'0 0.1
2017-Oct-12 12:30N 51°40' E 003°42'3 6.7
2017-Oct-12 12:00N 51°40' E 003°37'4 8.5
2017-Oct-12 11:30N 51°39' E 003°30'4 8.1
2017-Oct-12 11:00N 51°38' E 003°24'2 4.5
2017-Oct-12 10:30N 51°40' E 003°23'0 0.2
2017-Oct-12 10:00N 51°40' E 003°23'1 1.6
2017-Oct-12 09:30N 51°41' E 003°24'610.8
2017-Oct-12 08:59N 51°40' E 003°33'612.0
2017-Oct-12 08:30N 51°40' E 003°42'0 0.2
2017-Oct-12 08:00N 51°40' E 003°42'0 0.8
2017-Oct-12 07:30N 51°40' E 003°42'510.0
2017-Oct-12 07:01N 51°40' E 003°34'611.0
2017-Oct-12 06:30N 51°38' E 003°25'3 5.1
2017-Oct-12 06:00N 51°41' E 003°24'0 0.7
2017-Oct-12 05:30N 51°40' E 003°23'1 1.3
2017-Oct-12 05:01N 51°41' E 003°24'3 6.3
2017-Oct-12 04:30N 51°41' E 003°29'5 9.8
2017-Oct-12 03:59N 51°40' E 003°37'3 6.9
2017-Oct-12 03:30N 51°40' E 003°42'0 0.1
2017-Oct-12 02:59N 51°40' E 003°42'2 3.9
2017-Oct-12 02:30N 51°40' E 003°39'510.6
2017-Oct-12 02:00N 51°39' E 003°31'5 9.8
2017-Oct-12 01:31N 51°38' E 003°23'3 5.7
2017-Oct-12 01:01N 51°41' E 003°24'1 1.1
2017-Oct-12 00:30N 51°41' E 003°24'1 2.5
2017-Oct-12 00:00N 51°40' E 003°22'4 7.9
2017-Oct-11 23:30N 51°38' E 003°27'611.6
2017-Oct-11 23:00N 51°40' E 003°36'4 8.0
2017-Oct-11 22:29N 51°40' E 003°42'0 0.1
2017-Oct-11 21:59N 51°40' E 003°42'2 4.1
2017-Oct-11 21:30N 51°40' E 003°39'5 9.1
2017-Oct-11 21:00N 51°39' E 003°32'5 9.1
2017-Oct-11 20:30N 51°38' E 003°25'2 4.4
2017-Oct-11 20:00N 51°40' E 003°23'0 1.0
2017-Oct-11 19:30N 51°41' E 003°24'0 0.8
2017-Oct-11 18:51N 51°41' E 003°24'4 9.5
2017-Oct-11 18:26N 51°40' E 003°30'510.8
2017-Oct-11 18:00N 51°40' E 003°38'3 5.7
2017-Oct-11 17:30N 51°40' E 003°42'0 0.0
2017-Oct-11 16:55N 51°40' E 003°42'12 0.7
2017-Oct-11 00:00N 51°41' E 003°24'0 0.7
2017-Oct-10 23:29N 51°41' E 003°24'1 1.8
2017-Oct-10 23:00N 51°40' E 003°22'3 7.0
2017-Oct-10 22:30N 51°38' E 003°27'612.6
2017-Oct-10 22:00N 51°40' E 003°37'4 7.0
2017-Oct-10 21:30N 51°40' E 003°42'0 0.0
2017-Oct-10 21:00N 51°40' E 003°42'0 0.2
2017-Oct-10 20:30N 51°40' E 003°42'4 8.0
2017-Oct-10 20:00N 51°40' E 003°36'5 9.8
2017-Oct-10 19:30N 51°38' E 003°28'4 9.0
2017-Oct-10 19:00N 51°39' E 003°21'2 3.2
2017-Oct-10 18:31N 51°41' E 003°23'0 1.0
2017-Oct-10 18:00N 51°41' E 003°24'2 3.8
2017-Oct-10 17:30N 51°41' E 003°27'510.7
2017-Oct-10 16:59N 51°40' E 003°36'4 8.6
2017-Oct-10 16:30N 51°40' E 003°42'0 0.1
2017-Oct-10 15:41N 51°40' E 003°42'2 9.1
2017-Oct-10 15:30N 51°40' E 003°40'612.1
2017-Oct-10 15:00N 51°39' E 003°30'5 4.7
2017-Oct-10 14:00N 51°40' E 003°23'1 1.2
2017-Oct-10 13:29N 51°41' E 003°24'2 4.4
2017-Oct-10 13:00N 51°41' E 003°27'510.7
2017-Oct-10 12:30N 51°40' E 003°35'4 8.6
2017-Oct-10 12:00N 51°40' E 003°42'0 0.0
2017-Oct-10 11:30N 51°40' E 003°42'2 4.0
2017-Oct-10 11:00N 51°40' E 003°39'4 9.0
2017-Oct-10 10:30N 51°39' E 003°32'4 8.0
2017-Oct-10 10:00N 51°38' E 003°26'3 5.4
2017-Oct-10 09:30N 51°40' E 003°23'0 1.0
2017-Oct-10 09:00N 51°41' E 003°23'1 1.2
2017-Oct-10 08:30N 51°41' E 003°24'510.3
2017-Oct-10 07:59N 51°40' E 003°32'612.4
2017-Oct-10 07:30N 51°40' E 003°42'0 0.2
2017-Oct-10 07:00N 51°40' E 003°42'1 1.7
2017-Oct-10 06:30N 51°40' E 003°41'5 9.6
2017-Oct-10 06:00N 51°40' E 003°33'510.6
2017-Oct-10 05:30N 51°38' E 003°25'3 5.2
2017-Oct-10 05:00N 51°41' E 003°24'1 1.0
2017-Oct-10 04:30N 51°40' E 003°23'1 1.0
2017-Oct-10 04:00N 51°41' E 003°24'2 3.9
2017-Oct-10 03:30N 51°41' E 003°27'510.4
2017-Oct-10 03:00N 51°40' E 003°35'5 8.9
2017-Oct-10 02:30N 51°40' E 003°42'0 0.1
2017-Oct-10 02:01N 51°40' E 003°42'2 3.2
2017-Oct-10 01:30N 51°40' E 003°40'511.0
2017-Oct-10 01:00N 51°39' E 003°31'5 9.5
2017-Oct-10 00:31N 51°38' E 003°24'3 5.4
2017-Oct-10 00:00N 51°41' E 003°24'1 1.6
2017-Oct-09 23:30N 51°40' E 003°23'1 1.8
2017-Oct-09 23:00N 51°41' E 003°24'5 9.6
2017-Oct-09 22:30N 51°40' E 003°32'612.0
2017-Oct-09 21:57N 51°40' E 003°42'0 0.3
2017-Oct-09 21:30N 51°40' E 003°42'0 0.8
2017-Oct-09 21:00N 51°40' E 003°42'4 8.6
2017-Oct-09 20:30N 51°40' E 003°35'4 8.7
2017-Oct-09 20:00N 51°38' E 003°28'4 8.7
2017-Oct-09 19:30N 51°39' E 003°22'2 3.6
2017-Oct-09 19:00N 51°41' E 003°24'1 1.8
2017-Oct-09 18:29N 51°41' E 003°25'511.4
2017-Oct-09 18:00N 51°40' E 003°33'511.0
2017-Oct-09 17:30N 51°40' E 003°42'0 0.2
2017-Oct-09 17:00N 51°40' E 003°42'0 0.3
2017-Oct-09 16:15N 51°40' E 003°42'0 0.1
2017-Oct-09 15:57N 51°40' E 003°42'3 7.3
2017-Oct-09 15:30N 51°40' E 003°37'612.0
2017-Oct-09 15:00N 51°38' E 003°28'4 7.9
2017-Oct-09 14:30N 51°40' E 003°23'0 0.7
2017-Oct-09 14:00N 51°40' E 003°23'1 1.3
2017-Oct-09 13:30N 51°41' E 003°24'3 6.3
2017-Oct-09 12:58N 51°40' E 003°29'511.2
2017-Oct-09 12:30N 51°40' E 003°38'3 6.0
2017-Oct-09 12:00N 51°40' E 003°42'0 0.0
2017-Oct-09 11:29N 51°40' E 003°42'3 5.7
2017-Oct-09 11:00N 51°40' E 003°38'4 8.4
2017-Oct-09 10:29N 51°39' E 003°31'4 8.9
2017-Oct-09 10:00N 51°38' E 003°24'3 5.5
2017-Oct-09 09:29N 51°41' E 003°24'1 1.6
2017-Oct-09 09:00N 51°40' E 003°23'1 1.7
2017-Oct-09 08:31N 51°41' E 003°24'611.1
2017-Oct-09 08:00N 51°40' E 003°33'611.8
2017-Oct-09 07:30N 51°40' E 003°42'0 0.0
2017-Oct-09 07:00N 51°40' E 003°42'1 2.0
2017-Oct-09 06:30N 51°40' E 003°41'4 9.0
2017-Oct-09 06:00N 51°40' E 003°33'5 9.9
2017-Oct-09 05:30N 51°38' E 003°26'3 5.9
2017-Oct-09 05:00N 51°41' E 003°23'0 0.8
2017-Oct-09 04:29N 51°41' E 003°24'1 1.1
2017-Oct-09 04:00N 51°41' E 003°24'5 9.8
2017-Oct-09 03:30N 51°40' E 003°32'610.8
2017-Oct-09 02:59N 51°40' E 003°41'1 2.1
2017-Oct-09 02:29N 51°40' E 003°42'0 0.1
2017-Oct-09 01:58N 51°40' E 003°42'4 9.3
2017-Oct-09 01:30N 51°40' E 003°35'511.1
2017-Oct-09 01:00N 51°38' E 003°27'4 7.2
2017-Oct-09 00:30N 51°41' E 003°23'0 0.7
2017-Oct-09 00:00N 51°41' E 003°23'0 0.3
2017-Oct-08 23:30N 51°41' E 003°23'4 7.7
2017-Oct-08 23:00N 51°40' E 003°30'511.2
2017-Oct-08 22:30N 51°40' E 003°38'2 4.8
2017-Oct-08 22:00N 51°40' E 003°42'0 0.1
2017-Oct-08 21:30N 51°40' E 003°42'3 5.4
2017-Oct-08 21:00N 51°40' E 003°38'4 8.7
2017-Oct-08 20:30N 51°39' E 003°31'  

Dump ship's entire track history